sensor_id;sensor_type;location;lat;lon;timestamp;temperature;humidity
36450;DHT22;22475;51.390;7.180;2023-02-14T00:01:17;11.70;91.50
36450;DHT22;22475;51.390;7.180;2023-02-14T00:03:45;11.70;91.50
36450;DHT22;22475;51.390;7.180;2023-02-14T00:06:14;11.70;91.50
36450;DHT22;22475;51.390;7.180;2023-02-14T00:08:41;11.70;91.50
36450;DHT22;22475;51.390;7.180;2023-02-14T00:11:10;11.70;91.50
36450;DHT22;22475;51.390;7.180;2023-02-14T00:13:37;11.70;91.50
36450;DHT22;22475;51.390;7.180;2023-02-14T00:16:05;11.70;91.40
36450;DHT22;22475;51.390;7.180;2023-02-14T00:18:31;11.70;91.40
36450;DHT22;22475;51.390;7.180;2023-02-14T00:21:12;11.70;91.50
36450;DHT22;22475;51.390;7.180;2023-02-14T00:23:39;11.70;91.50
36450;DHT22;22475;51.390;7.180;2023-02-14T00:26:12;11.70;91.30
36450;DHT22;22475;51.390;7.180;2023-02-14T00:28:39;11.70;91.30
36450;DHT22;22475;51.390;7.180;2023-02-14T00:31:07;11.70;91.30
36450;DHT22;22475;51.390;7.180;2023-02-14T00:33:34;11.70;91.20
36450;DHT22;22475;51.390;7.180;2023-02-14T00:36:02;11.70;91.30
36450;DHT22;22475;51.390;7.180;2023-02-14T00:38:29;11.70;91.20
36450;DHT22;22475;51.390;7.180;2023-02-14T00:40:56;11.60;91.20
36450;DHT22;22475;51.390;7.180;2023-02-14T00:43:23;11.60;91.10
36450;DHT22;22475;51.390;7.180;2023-02-14T00:45:50;11.60;91.10
36450;DHT22;22475;51.390;7.180;2023-02-14T00:48:18;11.60;91.10
36450;DHT22;22475;51.390;7.180;2023-02-14T00:50:45;11.60;91.00
36450;DHT22;22475;51.390;7.180;2023-02-14T00:53:12;11.60;90.90
36450;DHT22;22475;51.390;7.180;2023-02-14T00:55:39;11.60;90.80
36450;DHT22;22475;51.390;7.180;2023-02-14T00:58:06;11.60;90.80
36450;DHT22;22475;51.390;7.180;2023-02-14T01:00:33;11.50;90.70
36450;DHT22;22475;51.390;7.180;2023-02-14T01:02:59;11.50;90.70
36450;DHT22;22475;51.390;7.180;2023-02-14T01:05:28;11.50;90.60
36450;DHT22;22475;51.390;7.180;2023-02-14T01:07:54;11.50;90.60
36450;DHT22;22475;51.390;7.180;2023-02-14T01:10:21;11.50;90.60
36450;DHT22;22475;51.390;7.180;2023-02-14T01:12:48;11.50;90.50
36450;DHT22;22475;51.390;7.180;2023-02-14T01:15:14;11.50;90.50
36450;DHT22;22475;51.390;7.180;2023-02-14T01:17:41;11.50;90.40
36450;DHT22;22475;51.390;7.180;2023-02-14T01:20:09;11.40;90.40
36450;DHT22;22475;51.390;7.180;2023-02-14T01:22:37;11.40;90.40
36450;DHT22;22475;51.390;7.180;2023-02-14T01:25:05;11.40;90.30
36450;DHT22;22475;51.390;7.180;2023-02-14T01:27:31;11.40;90.30
36450;DHT22;22475;51.390;7.180;2023-02-14T01:29:58;11.40;90.30
36450;DHT22;22475;51.390;7.180;2023-02-14T01:32:25;11.40;90.30
36450;DHT22;22475;51.390;7.180;2023-02-14T01:34:52;11.40;90.30
36450;DHT22;22475;51.390;7.180;2023-02-14T01:37:18;11.40;90.30
36450;DHT22;22475;51.390;7.180;2023-02-14T01:39:46;11.40;90.30
36450;DHT22;22475;51.390;7.180;2023-02-14T01:42:13;11.40;90.30
36450;DHT22;22475;51.390;7.180;2023-02-14T01:45:02;11.40;90.30
36450;DHT22;22475;51.390;7.180;2023-02-14T01:47:32;11.40;90.20
36450;DHT22;22475;51.390;7.180;2023-02-14T01:50:03;11.40;90.20
36450;DHT22;22475;51.390;7.180;2023-02-14T01:52:35;11.40;90.20
36450;DHT22;22475;51.390;7.180;2023-02-14T01:55:07;11.30;90.10
36450;DHT22;22475;51.390;7.180;2023-02-14T01:57:38;11.40;90.10
36450;DHT22;22475;51.390;7.180;2023-02-14T02:00:08;11.40;90.10
36450;DHT22;22475;51.390;7.180;2023-02-14T02:02:53;11.40;90.20
36450;DHT22;22475;51.390;7.180;2023-02-14T02:05:21;11.30;90.20
36450;DHT22;22475;51.390;7.180;2023-02-14T02:07:49;11.30;90.20
36450;DHT22;22475;51.390;7.180;2023-02-14T02:10:19;11.30;90.10
36450;DHT22;22475;51.390;7.180;2023-02-14T02:12:47;11.30;90.10
36450;DHT22;22475;51.390;7.180;2023-02-14T02:15:14;11.30;90.20
36450;DHT22;22475;51.390;7.180;2023-02-14T02:17:50;11.30;90.30
36450;DHT22;22475;51.390;7.180;2023-02-14T02:20:56;11.30;90.30
36450;DHT22;22475;51.390;7.180;2023-02-14T02:23:58;11.30;90.30
36450;DHT22;22475;51.390;7.180;2023-02-14T02:33:26;11.30;90.30
36450;DHT22;22475;51.390;7.180;2023-02-14T02:36:06;11.30;90.30
36450;DHT22;22475;51.390;7.180;2023-02-14T02:38:54;11.30;90.40
36450;DHT22;22475;51.390;7.180;2023-02-14T02:41:32;11.30;90.40
36450;DHT22;22475;51.390;7.180;2023-02-14T02:44:16;11.30;90.30
36450;DHT22;22475;51.390;7.180;2023-02-14T02:46:48;11.30;90.30
36450;DHT22;22475;51.390;7.180;2023-02-14T02:49:25;11.30;90.40
36450;DHT22;22475;51.390;7.180;2023-02-14T02:52:21;11.30;90.40
36450;DHT22;22475;51.390;7.180;2023-02-14T02:55:13;11.30;90.30
36450;DHT22;22475;51.390;7.180;2023-02-14T02:57:43;11.20;90.20
36450;DHT22;22475;51.390;7.180;2023-02-14T03:00:12;11.30;90.30
36450;DHT22;22475;51.390;7.180;2023-02-14T03:02:42;11.30;90.30
36450;DHT22;22475;51.390;7.180;2023-02-14T03:05:28;11.20;90.30
36450;DHT22;22475;51.390;7.180;2023-02-14T03:07:56;11.20;90.20
36450;DHT22;22475;51.390;7.180;2023-02-14T03:10:24;11.20;90.20
36450;DHT22;22475;51.390;7.180;2023-02-14T03:16:31;11.20;90.30
36450;DHT22;22475;51.390;7.180;2023-02-14T03:19:29;11.20;90.40
36450;DHT22;22475;51.390;7.180;2023-02-14T03:21:59;11.20;90.30
36450;DHT22;22475;51.390;7.180;2023-02-14T03:24:35;11.20;90.30
36450;DHT22;22475;51.390;7.180;2023-02-14T03:27:08;11.20;90.20
36450;DHT22;22475;51.390;7.180;2023-02-14T03:29:47;11.20;90.20
36450;DHT22;22475;51.390;7.180;2023-02-14T03:32:19;11.20;90.30
36450;DHT22;22475;51.390;7.180;2023-02-14T03:34:54;11.20;90.30
36450;DHT22;22475;51.390;7.180;2023-02-14T03:37:25;11.20;90.30
36450;DHT22;22475;51.390;7.180;2023-02-14T03:40:00;11.20;90.30
36450;DHT22;22475;51.390;7.180;2023-02-14T03:42:34;11.20;90.40
36450;DHT22;22475;51.390;7.180;2023-02-14T03:45:03;11.10;90.30
36450;DHT22;22475;51.390;7.180;2023-02-14T03:47:33;11.10;90.40
36450;DHT22;22475;51.390;7.180;2023-02-14T03:50:08;11.10;90.30
36450;DHT22;22475;51.390;7.180;2023-02-14T03:52:36;11.10;90.30
36450;DHT22;22475;51.390;7.180;2023-02-14T03:55:06;11.10;90.20
36450;DHT22;22475;51.390;7.180;2023-02-14T03:57:37;11.10;90.20
36450;DHT22;22475;51.390;7.180;2023-02-14T04:00:09;11.10;90.10
36450;DHT22;22475;51.390;7.180;2023-02-14T04:02:38;11.10;90.10
36450;DHT22;22475;51.390;7.180;2023-02-14T04:05:11;11.10;90.10
36450;DHT22;22475;51.390;7.180;2023-02-14T04:07:44;11.10;90.10
36450;DHT22;22475;51.390;7.180;2023-02-14T04:10:13;11.10;90.10
36450;DHT22;22475;51.390;7.180;2023-02-14T04:12:40;11.10;90.00
36450;DHT22;22475;51.390;7.180;2023-02-14T04:15:07;11.10;90.00
36450;DHT22;22475;51.390;7.180;2023-02-14T04:17:34;11.10;90.00
36450;DHT22;22475;51.390;7.180;2023-02-14T04:20:19;11.00;89.90
36450;DHT22;22475;51.390;7.180;2023-02-14T04:22:46;11.00;89.80
36450;DHT22;22475;51.390;7.180;2023-02-14T04:25:14;11.00;89.70
36450;DHT22;22475;51.390;7.180;2023-02-14T04:27:41;11.10;89.80
36450;DHT22;22475;51.390;7.180;2023-02-14T04:30:09;11.00;89.80
36450;DHT22;22475;51.390;7.180;2023-02-14T04:32:37;11.00;89.90
36450;DHT22;22475;51.390;7.180;2023-02-14T04:35:06;11.00;89.90
36450;DHT22;22475;51.390;7.180;2023-02-14T04:37:33;11.00;90.30
36450;DHT22;22475;51.390;7.180;2023-02-14T04:39:59;11.00;89.80
36450;DHT22;22475;51.390;7.180;2023-02-14T04:42:28;11.00;89.80
36450;DHT22;22475;51.390;7.180;2023-02-14T04:44:54;11.00;89.80
36450;DHT22;22475;51.390;7.180;2023-02-14T04:47:21;11.00;89.70
36450;DHT22;22475;51.390;7.180;2023-02-14T04:49:48;11.00;89.70
36450;DHT22;22475;51.390;7.180;2023-02-14T04:52:14;11.00;89.70
36450;DHT22;22475;51.390;7.180;2023-02-14T04:54:41;11.00;89.80
36450;DHT22;22475;51.390;7.180;2023-02-14T04:57:08;10.90;89.70
36450;DHT22;22475;51.390;7.180;2023-02-14T04:59:36;11.00;89.70
36450;DHT22;22475;51.390;7.180;2023-02-14T05:02:03;11.00;89.80
36450;DHT22;22475;51.390;7.180;2023-02-14T05:04:30;11.00;89.80
36450;DHT22;22475;51.390;7.180;2023-02-14T05:06:56;11.00;89.70
36450;DHT22;22475;51.390;7.180;2023-02-14T05:09:23;10.90;89.70
36450;DHT22;22475;51.390;7.180;2023-02-14T05:11:50;10.90;89.60
36450;DHT22;22475;51.390;7.180;2023-02-14T05:14:17;10.90;89.50
36450;DHT22;22475;51.390;7.180;2023-02-14T05:16:45;10.90;89.60
36450;DHT22;22475;51.390;7.180;2023-02-14T05:19:11;10.90;89.70
36450;DHT22;22475;51.390;7.180;2023-02-14T05:21:38;10.90;89.70
36450;DHT22;22475;51.390;7.180;2023-02-14T05:24:05;10.90;89.70
36450;DHT22;22475;51.390;7.180;2023-02-14T05:26:32;10.90;89.90
36450;DHT22;22475;51.390;7.180;2023-02-14T05:28:59;10.90;89.90
36450;DHT22;22475;51.390;7.180;2023-02-14T05:31:25;10.90;89.80
36450;DHT22;22475;51.390;7.180;2023-02-14T05:33:53;10.90;89.80
36450;DHT22;22475;51.390;7.180;2023-02-14T05:36:20;10.90;89.80
36450;DHT22;22475;51.390;7.180;2023-02-14T05:38:47;10.90;89.90
36450;DHT22;22475;51.390;7.180;2023-02-14T05:41:14;10.90;90.00
36450;DHT22;22475;51.390;7.180;2023-02-14T05:43:40;10.90;90.00
36450;DHT22;22475;51.390;7.180;2023-02-14T05:46:07;10.90;89.90
36450;DHT22;22475;51.390;7.180;2023-02-14T05:48:34;10.90;89.90
36450;DHT22;22475;51.390;7.180;2023-02-14T05:51:04;10.90;90.00
36450;DHT22;22475;51.390;7.180;2023-02-14T05:53:31;10.90;89.90
36450;DHT22;22475;51.390;7.180;2023-02-14T05:55:58;10.90;89.90
36450;DHT22;22475;51.390;7.180;2023-02-14T05:58:24;10.90;89.90
36450;DHT22;22475;51.390;7.180;2023-02-14T06:00:51;10.90;90.00
36450;DHT22;22475;51.390;7.180;2023-02-14T06:03:18;10.90;89.90
36450;DHT22;22475;51.390;7.180;2023-02-14T06:05:45;10.90;89.90
36450;DHT22;22475;51.390;7.180;2023-02-14T06:08:13;10.90;89.80
36450;DHT22;22475;51.390;7.180;2023-02-14T06:10:39;10.90;89.80
36450;DHT22;22475;51.390;7.180;2023-02-14T06:13:06;10.90;89.80
36450;DHT22;22475;51.390;7.180;2023-02-14T06:15:33;10.80;89.80
36450;DHT22;22475;51.390;7.180;2023-02-14T06:18:00;10.80;89.90
36450;DHT22;22475;51.390;7.180;2023-02-14T06:20:27;10.90;90.00
36450;DHT22;22475;51.390;7.180;2023-02-14T06:22:54;10.80;90.00
36450;DHT22;22475;51.390;7.180;2023-02-14T06:25:23;10.90;90.00
36450;DHT22;22475;51.390;7.180;2023-02-14T06:27:50;10.90;89.90
36450;DHT22;22475;51.390;7.180;2023-02-14T06:30:17;10.90;89.80
36450;DHT22;22475;51.390;7.180;2023-02-14T06:32:44;10.90;89.90
36450;DHT22;22475;51.390;7.180;2023-02-14T06:35:11;10.90;90.00
36450;DHT22;22475;51.390;7.180;2023-02-14T06:37:38;10.80;90.00
36450;DHT22;22475;51.390;7.180;2023-02-14T06:40:07;10.80;90.00
36450;DHT22;22475;51.390;7.180;2023-02-14T06:42:35;10.80;90.00
36450;DHT22;22475;51.390;7.180;2023-02-14T06:45:03;10.80;90.00
36450;DHT22;22475;51.390;7.180;2023-02-14T06:47:30;10.80;90.10
36450;DHT22;22475;51.390;7.180;2023-02-14T06:49:56;10.80;90.10
36450;DHT22;22475;51.390;7.180;2023-02-14T06:52:24;10.90;90.20
36450;DHT22;22475;51.390;7.180;2023-02-14T06:54:51;10.80;90.10
36450;DHT22;22475;51.390;7.180;2023-02-14T06:57:17;10.80;90.10
36450;DHT22;22475;51.390;7.180;2023-02-14T06:59:45;10.80;90.00
36450;DHT22;22475;51.390;7.180;2023-02-14T07:02:12;10.80;90.10
36450;DHT22;22475;51.390;7.180;2023-02-14T07:04:39;10.80;90.10
36450;DHT22;22475;51.390;7.180;2023-02-14T07:07:06;10.80;90.10
36450;DHT22;22475;51.390;7.180;2023-02-14T07:09:32;10.80;90.10
36450;DHT22;22475;51.390;7.180;2023-02-14T07:11:59;10.80;90.20
36450;DHT22;22475;51.390;7.180;2023-02-14T07:14:26;10.80;90.20
36450;DHT22;22475;51.390;7.180;2023-02-14T07:16:54;10.80;90.20
36450;DHT22;22475;51.390;7.180;2023-02-14T07:19:21;10.80;90.20
36450;DHT22;22475;51.390;7.180;2023-02-14T07:21:47;10.80;90.30
36450;DHT22;22475;51.390;7.180;2023-02-14T07:24:14;10.80;90.30
36450;DHT22;22475;51.390;7.180;2023-02-14T07:26:41;10.80;90.20
36450;DHT22;22475;51.390;7.180;2023-02-14T07:29:08;10.80;90.20
36450;DHT22;22475;51.390;7.180;2023-02-14T07:31:34;10.80;90.10
36450;DHT22;22475;51.390;7.180;2023-02-14T07:34:03;10.80;90.10
36450;DHT22;22475;51.390;7.180;2023-02-14T07:36:32;10.80;90.10
36450;DHT22;22475;51.390;7.180;2023-02-14T07:38:59;10.80;90.10
36450;DHT22;22475;51.390;7.180;2023-02-14T07:41:25;10.80;90.00
36450;DHT22;22475;51.390;7.180;2023-02-14T07:43:52;10.80;90.00
36450;DHT22;22475;51.390;7.180;2023-02-14T07:46:19;10.80;90.10
36450;DHT22;22475;51.390;7.180;2023-02-14T07:48:46;10.80;90.10
36450;DHT22;22475;51.390;7.180;2023-02-14T07:51:14;10.80;90.10
36450;DHT22;22475;51.390;7.180;2023-02-14T07:53:41;10.80;90.10
36450;DHT22;22475;51.390;7.180;2023-02-14T07:56:08;10.80;90.10
36450;DHT22;22475;51.390;7.180;2023-02-14T07:58:34;10.80;90.00
36450;DHT22;22475;51.390;7.180;2023-02-14T08:01:01;10.80;90.00
36450;DHT22;22475;51.390;7.180;2023-02-14T08:03:28;10.70;90.00
36450;DHT22;22475;51.390;7.180;2023-02-14T08:05:54;10.80;90.00
36450;DHT22;22475;51.390;7.180;2023-02-14T08:08:25;10.80;90.10
36450;DHT22;22475;51.390;7.180;2023-02-14T08:10:52;10.80;90.10
36450;DHT22;22475;51.390;7.180;2023-02-14T08:13:19;10.80;90.10
36450;DHT22;22475;51.390;7.180;2023-02-14T08:15:46;10.80;90.10
36450;DHT22;22475;51.390;7.180;2023-02-14T08:18:33;10.80;90.10
36450;DHT22;22475;51.390;7.180;2023-02-14T08:21:00;10.80;90.10
36450;DHT22;22475;51.390;7.180;2023-02-14T08:23:28;10.80;90.20
36450;DHT22;22475;51.390;7.180;2023-02-14T08:25:55;10.80;90.20
36450;DHT22;22475;51.390;7.180;2023-02-14T08:28:22;10.80;90.30
36450;DHT22;22475;51.390;7.180;2023-02-14T08:30:49;10.80;90.30
36450;DHT22;22475;51.390;7.180;2023-02-14T08:33:16;10.80;90.30
36450;DHT22;22475;51.390;7.180;2023-02-14T08:35:43;10.80;90.30
36450;DHT22;22475;51.390;7.180;2023-02-14T08:38:10;10.80;90.40
36450;DHT22;22475;51.390;7.180;2023-02-14T08:40:38;10.90;90.50
36450;DHT22;22475;51.390;7.180;2023-02-14T08:43:06;10.90;90.50
36450;DHT22;22475;51.390;7.180;2023-02-14T08:45:33;10.90;90.50
36450;DHT22;22475;51.390;7.180;2023-02-14T08:48:01;10.90;90.60
36450;DHT22;22475;51.390;7.180;2023-02-14T08:50:28;10.80;90.50
36450;DHT22;22475;51.390;7.180;2023-02-14T08:52:55;10.90;90.50
36450;DHT22;22475;51.390;7.180;2023-02-14T08:55:22;10.90;90.60
36450;DHT22;22475;51.390;7.180;2023-02-14T08:57:50;10.90;90.60
36450;DHT22;22475;51.390;7.180;2023-02-14T09:00:17;10.90;90.60
36450;DHT22;22475;51.390;7.180;2023-02-14T09:02:44;11.00;90.70
36450;DHT22;22475;51.390;7.180;2023-02-14T09:05:11;11.00;90.70
36450;DHT22;22475;51.390;7.180;2023-02-14T09:07:37;11.00;90.80
36450;DHT22;22475;51.390;7.180;2023-02-14T09:10:06;11.00;90.80
36450;DHT22;22475;51.390;7.180;2023-02-14T09:12:33;11.00;90.80
36450;DHT22;22475;51.390;7.180;2023-02-14T09:15:01;11.00;90.80
36450;DHT22;22475;51.390;7.180;2023-02-14T09:17:28;11.00;90.80
36450;DHT22;22475;51.390;7.180;2023-02-14T09:19:55;11.00;90.80
36450;DHT22;22475;51.390;7.180;2023-02-14T09:22:21;11.10;90.80
36450;DHT22;22475;51.390;7.180;2023-02-14T09:24:48;11.10;90.80
36450;DHT22;22475;51.390;7.180;2023-02-14T09:27:15;11.10;90.80
36450;DHT22;22475;51.390;7.180;2023-02-14T09:29:42;11.10;90.80
36450;DHT22;22475;51.390;7.180;2023-02-14T09:32:10;11.10;90.90
36450;DHT22;22475;51.390;7.180;2023-02-14T09:34:36;11.10;90.90
36450;DHT22;22475;51.390;7.180;2023-02-14T09:37:21;11.10;90.90
36450;DHT22;22475;51.390;7.180;2023-02-14T09:40:06;11.10;90.90
36450;DHT22;22475;51.390;7.180;2023-02-14T09:42:41;11.10;90.90
36450;DHT22;22475;51.390;7.180;2023-02-14T09:45:12;11.20;90.90
36450;DHT22;22475;51.390;7.180;2023-02-14T09:47:43;11.20;91.00
36450;DHT22;22475;51.390;7.180;2023-02-14T09:50:16;11.20;91.00
36450;DHT22;22475;51.390;7.180;2023-02-14T09:52:45;11.20;91.00
36450;DHT22;22475;51.390;7.180;2023-02-14T09:55:14;11.20;91.00
36450;DHT22;22475;51.390;7.180;2023-02-14T09:57:48;11.20;91.00
36450;DHT22;22475;51.390;7.180;2023-02-14T10:00:28;11.30;91.10
36450;DHT22;22475;51.390;7.180;2023-02-14T10:03:02;11.30;91.10
36450;DHT22;22475;51.390;7.180;2023-02-14T10:05:36;11.30;91.10
36450;DHT22;22475;51.390;7.180;2023-02-14T10:08:13;11.30;91.10
36450;DHT22;22475;51.390;7.180;2023-02-14T10:10:49;11.30;91.10
36450;DHT22;22475;51.390;7.180;2023-02-14T10:13:30;11.30;91.10
36450;DHT22;22475;51.390;7.180;2023-02-14T10:16:02;11.30;91.00
36450;DHT22;22475;51.390;7.180;2023-02-14T10:18:39;11.30;91.00
36450;DHT22;22475;51.390;7.180;2023-02-14T10:21:06;11.30;91.00
36450;DHT22;22475;51.390;7.180;2023-02-14T10:23:41;11.30;91.00
36450;DHT22;22475;51.390;7.180;2023-02-14T10:26:14;11.30;91.00
36450;DHT22;22475;51.390;7.180;2023-02-14T10:28:44;11.40;91.10
36450;DHT22;22475;51.390;7.180;2023-02-14T10:31:18;11.40;91.10
36450;DHT22;22475;51.390;7.180;2023-02-14T10:33:51;11.40;91.10
36450;DHT22;22475;51.390;7.180;2023-02-14T10:39:31;11.40;91.10
36450;DHT22;22475;51.390;7.180;2023-02-14T10:42:09;11.40;91.00
36450;DHT22;22475;51.390;7.180;2023-02-14T10:44:44;11.40;91.00
36450;DHT22;22475;51.390;7.180;2023-02-14T10:47:25;11.40;91.10
36450;DHT22;22475;51.390;7.180;2023-02-14T10:50:02;11.40;91.10
36450;DHT22;22475;51.390;7.180;2023-02-14T10:52:38;11.40;91.10
36450;DHT22;22475;51.390;7.180;2023-02-14T10:55:11;11.40;91.10
36450;DHT22;22475;51.390;7.180;2023-02-14T10:57:41;11.40;91.10
36450;DHT22;22475;51.390;7.180;2023-02-14T11:00:18;11.40;91.10
36450;DHT22;22475;51.390;7.180;2023-02-14T11:02:49;11.40;91.10
36450;DHT22;22475;51.390;7.180;2023-02-14T11:05:24;11.40;91.10
36450;DHT22;22475;51.390;7.180;2023-02-14T11:07:51;11.40;91.00
36450;DHT22;22475;51.390;7.180;2023-02-14T11:10:19;11.40;91.00
36450;DHT22;22475;51.390;7.180;2023-02-14T11:12:48;11.40;90.90
36450;DHT22;22475;51.390;7.180;2023-02-14T11:15:20;11.50;90.90
36450;DHT22;22475;51.390;7.180;2023-02-14T11:17:48;11.50;90.80
36450;DHT22;22475;51.390;7.180;2023-02-14T11:20:25;11.50;90.80
36450;DHT22;22475;51.390;7.180;2023-02-14T11:22:55;11.50;90.90
36450;DHT22;22475;51.390;7.180;2023-02-14T11:25:24;11.50;90.90
36450;DHT22;22475;51.390;7.180;2023-02-14T11:27:57;11.40;90.90
36450;DHT22;22475;51.390;7.180;2023-02-14T11:30:28;11.50;90.90
36450;DHT22;22475;51.390;7.180;2023-02-14T11:32:56;11.50;90.90
36450;DHT22;22475;51.390;7.180;2023-02-14T11:35:26;11.50;91.00
36450;DHT22;22475;51.390;7.180;2023-02-14T11:37:58;11.50;91.00
36450;DHT22;22475;51.390;7.180;2023-02-14T11:40:28;11.50;90.90
36450;DHT22;22475;51.390;7.180;2023-02-14T11:42:58;11.50;90.90
36450;DHT22;22475;51.390;7.180;2023-02-14T11:45:27;11.50;91.00
36450;DHT22;22475;51.390;7.180;2023-02-14T11:48:14;11.50;91.00
36450;DHT22;22475;51.390;7.180;2023-02-14T11:50:43;11.50;91.00
36450;DHT22;22475;51.390;7.180;2023-02-14T11:53:21;11.50;91.00
36450;DHT22;22475;51.390;7.180;2023-02-14T11:55:52;11.50;91.00
36450;DHT22;22475;51.390;7.180;2023-02-14T11:58:32;11.50;91.10
36450;DHT22;22475;51.390;7.180;2023-02-14T12:01:00;11.60;91.20
36450;DHT22;22475;51.390;7.180;2023-02-14T12:03:28;11.50;91.20
36450;DHT22;22475;51.390;7.180;2023-02-14T12:05:59;11.60;91.20
36450;DHT22;22475;51.390;7.180;2023-02-14T12:08:28;11.50;91.10
36450;DHT22;22475;51.390;7.180;2023-02-14T12:11:01;11.60;91.10
36450;DHT22;22475;51.390;7.180;2023-02-14T12:13:28;11.60;91.00
36450;DHT22;22475;51.390;7.180;2023-02-14T12:15:56;11.60;91.00
36450;DHT22;22475;51.390;7.180;2023-02-14T12:18:38;11.60;91.10
36450;DHT22;22475;51.390;7.180;2023-02-14T12:21:19;11.60;91.20
36450;DHT22;22475;51.390;7.180;2023-02-14T12:23:53;11.60;91.20
36450;DHT22;22475;51.390;7.180;2023-02-14T12:26:27;11.60;91.20
36450;DHT22;22475;51.390;7.180;2023-02-14T12:29:01;11.60;91.30
36450;DHT22;22475;51.390;7.180;2023-02-14T12:31:29;11.60;91.20
36450;DHT22;22475;51.390;7.180;2023-02-14T12:33:56;11.60;91.20
36450;DHT22;22475;51.390;7.180;2023-02-14T12:36:33;11.60;91.20
36450;DHT22;22475;51.390;7.180;2023-02-14T12:39:09;11.60;91.20
36450;DHT22;22475;51.390;7.180;2023-02-14T12:41:44;11.60;91.10
36450;DHT22;22475;51.390;7.180;2023-02-14T12:44:20;11.60;91.20
36450;DHT22;22475;51.390;7.180;2023-02-14T12:47:10;11.60;90.90
36450;DHT22;22475;51.390;7.180;2023-02-14T12:52:43;11.60;90.80
36450;DHT22;22475;51.390;7.180;2023-02-14T12:55:27;11.60;90.80
36450;DHT22;22475;51.390;7.180;2023-02-14T12:58:00;11.60;90.80
36450;DHT22;22475;51.390;7.180;2023-02-14T13:00:36;11.60;90.70
36450;DHT22;22475;51.390;7.180;2023-02-14T13:03:32;11.60;90.60
36450;DHT22;22475;51.390;7.180;2023-02-14T13:06:11;11.60;90.40
36450;DHT22;22475;51.390;7.180;2023-02-14T13:08:59;11.70;90.40
36450;DHT22;22475;51.390;7.180;2023-02-14T13:11:37;11.70;90.50
36450;DHT22;22475;51.390;7.180;2023-02-14T13:14:15;11.60;90.40
36450;DHT22;22475;51.390;7.180;2023-02-14T13:16:50;11.70;90.50
36450;DHT22;22475;51.390;7.180;2023-02-14T13:19:34;11.70;90.50
36450;DHT22;22475;51.390;7.180;2023-02-14T13:22:04;11.70;90.60
36450;DHT22;22475;51.390;7.180;2023-02-14T13:24:38;11.70;90.60
36450;DHT22;22475;51.390;7.180;2023-02-14T13:27:11;11.60;90.60
36450;DHT22;22475;51.390;7.180;2023-02-14T13:29:42;11.70;90.60
36450;DHT22;22475;51.390;7.180;2023-02-14T13:32:12;11.70;90.70
36450;DHT22;22475;51.390;7.180;2023-02-14T13:34:43;11.60;90.50
36450;DHT22;22475;51.390;7.180;2023-02-14T13:37:12;11.70;90.50
36450;DHT22;22475;51.390;7.180;2023-02-14T13:39:45;11.70;90.40
36450;DHT22;22475;51.390;7.180;2023-02-14T13:42:49;11.70;90.40
36450;DHT22;22475;51.390;7.180;2023-02-14T13:45:49;11.70;90.30
36450;DHT22;22475;51.390;7.180;2023-02-14T13:48:18;11.70;90.20
36450;DHT22;22475;51.390;7.180;2023-02-14T13:50:49;11.70;90.20
36450;DHT22;22475;51.390;7.180;2023-02-14T13:53:29;11.70;90.10
36450;DHT22;22475;51.390;7.180;2023-02-14T13:55:58;11.70;90.20
36450;DHT22;22475;51.390;7.180;2023-02-14T13:58:24;11.70;90.30
36450;DHT22;22475;51.390;7.180;2023-02-14T14:00:52;11.70;90.40
36450;DHT22;22475;51.390;7.180;2023-02-14T14:03:51;11.70;90.50
36450;DHT22;22475;51.390;7.180;2023-02-14T14:06:18;11.70;90.60
36450;DHT22;22475;51.390;7.180;2023-02-14T14:08:48;11.70;90.60
36450;DHT22;22475;51.390;7.180;2023-02-14T14:14:30;11.70;90.40
36450;DHT22;22475;51.390;7.180;2023-02-14T14:17:03;11.80;90.50
36450;DHT22;22475;51.390;7.180;2023-02-14T14:19:37;11.70;90.40
36450;DHT22;22475;51.390;7.180;2023-02-14T14:22:06;11.80;90.40
36450;DHT22;22475;51.390;7.180;2023-02-14T14:24:34;11.80;90.40
36450;DHT22;22475;51.390;7.180;2023-02-14T14:27:03;11.80;90.50
36450;DHT22;22475;51.390;7.180;2023-02-14T14:29:35;11.70;90.50
36450;DHT22;22475;51.390;7.180;2023-02-14T14:32:07;11.70;90.60
36450;DHT22;22475;51.390;7.180;2023-02-14T14:34:34;11.80;90.70
36450;DHT22;22475;51.390;7.180;2023-02-14T14:37:02;11.80;90.70
36450;DHT22;22475;51.390;7.180;2023-02-14T14:39:30;11.80;90.60
36450;DHT22;22475;51.390;7.180;2023-02-14T14:42:04;11.80;90.60
36450;DHT22;22475;51.390;7.180;2023-02-14T14:44:34;11.80;90.60
36450;DHT22;22475;51.390;7.180;2023-02-14T14:47:01;11.80;90.70
36450;DHT22;22475;51.390;7.180;2023-02-14T14:49:28;11.80;90.70
36450;DHT22;22475;51.390;7.180;2023-02-14T14:51:57;11.80;90.80
36450;DHT22;22475;51.390;7.180;2023-02-14T14:54:23;11.80;90.80
36450;DHT22;22475;51.390;7.180;2023-02-14T14:56:55;11.80;90.90
36450;DHT22;22475;51.390;7.180;2023-02-14T14:59:28;11.80;90.90
36450;DHT22;22475;51.390;7.180;2023-02-14T15:01:56;11.80;90.90
36450;DHT22;22475;51.390;7.180;2023-02-14T15:04:26;11.80;90.90
36450;DHT22;22475;51.390;7.180;2023-02-14T15:06:54;11.80;91.00
36450;DHT22;22475;51.390;7.180;2023-02-14T15:09:23;11.80;91.00
36450;DHT22;22475;51.390;7.180;2023-02-14T15:11:56;11.80;91.10
36450;DHT22;22475;51.390;7.180;2023-02-14T15:14:43;11.80;91.10
36450;DHT22;22475;51.390;7.180;2023-02-14T15:17:17;11.90;91.20
36450;DHT22;22475;51.390;7.180;2023-02-14T15:19:47;11.80;91.10
36450;DHT22;22475;51.390;7.180;2023-02-14T15:22:19;11.80;91.10
36450;DHT22;22475;51.390;7.180;2023-02-14T15:24:47;11.80;91.10
36450;DHT22;22475;51.390;7.180;2023-02-14T15:27:15;11.80;91.10
36450;DHT22;22475;51.390;7.180;2023-02-14T15:29:53;11.80;91.10
36450;DHT22;22475;51.390;7.180;2023-02-14T15:32:22;11.80;91.10
36450;DHT22;22475;51.390;7.180;2023-02-14T15:34:50;11.80;91.10
36450;DHT22;22475;51.390;7.180;2023-02-14T15:37:18;11.90;91.10
36450;DHT22;22475;51.390;7.180;2023-02-14T15:39:48;11.90;91.10
36450;DHT22;22475;51.390;7.180;2023-02-14T15:42:19;11.90;91.10
36450;DHT22;22475;51.390;7.180;2023-02-14T15:47:33;11.90;91.10
36450;DHT22;22475;51.390;7.180;2023-02-14T15:50:00;11.90;91.10
36450;DHT22;22475;51.390;7.180;2023-02-14T15:52:26;11.90;91.20
36450;DHT22;22475;51.390;7.180;2023-02-14T15:54:53;11.90;91.20
36450;DHT22;22475;51.390;7.180;2023-02-14T15:57:22;11.90;91.30
36450;DHT22;22475;51.390;7.180;2023-02-14T15:59:51;11.90;91.30
36450;DHT22;22475;51.390;7.180;2023-02-14T16:02:26;11.90;91.30
36450;DHT22;22475;51.390;7.180;2023-02-14T16:05:03;11.90;91.20
36450;DHT22;22475;51.390;7.180;2023-02-14T16:07:31;11.90;91.30
36450;DHT22;22475;51.390;7.180;2023-02-14T16:10:21;11.90;91.30
36450;DHT22;22475;51.390;7.180;2023-02-14T16:13:00;11.90;91.40
36450;DHT22;22475;51.390;7.180;2023-02-14T16:15:28;11.90;91.40